createdAt,value
2019-06-08T00:01:47.815Z,16.35
2019-06-08T00:04:20.594Z,16.35
2019-06-08T00:06:52.484Z,16.26
2019-06-08T00:09:24.229Z,16.35
2019-06-08T00:11:55.662Z,16.44
2019-06-08T00:14:26.966Z,16.47
2019-06-08T00:16:58.652Z,16.46
2019-06-08T00:19:30.139Z,16.43
2019-06-08T00:22:01.460Z,16.38
2019-06-08T00:24:32.831Z,16.49
2019-06-08T00:27:04.340Z,16.46
2019-06-08T00:29:35.866Z,16.46
2019-06-08T00:32:07.355Z,16.36
2019-06-08T00:34:38.878Z,16.36
2019-06-08T00:37:10.279Z,16.43
2019-06-08T00:39:41.830Z,16.46
2019-06-08T00:42:13.529Z,16.41
2019-06-08T00:44:45.303Z,16.26
2019-06-08T00:47:16.775Z,16.30
2019-06-08T00:49:50.025Z,16.36
2019-06-08T00:52:21.442Z,16.33
2019-06-08T00:54:52.783Z,16.38
2019-06-08T00:57:24.260Z,16.24
2019-06-08T00:59:56.414Z,16.18
2019-06-08T01:02:28.871Z,16.11
2019-06-08T01:05:00.331Z,16.12
2019-06-08T01:07:31.667Z,16.15
2019-06-08T01:10:03.181Z,16.24
2019-06-08T01:12:34.741Z,16.10
2019-06-08T01:15:08.181Z,16.10
2019-06-08T01:17:39.950Z,16.11
2019-06-08T01:20:12.852Z,16.09
2019-06-08T01:22:44.281Z,16.00
2019-06-08T01:25:16.117Z,15.98
2019-06-08T01:27:47.969Z,15.86
2019-06-08T01:30:20.151Z,15.65
2019-06-08T01:32:51.561Z,15.69
2019-06-08T01:35:22.962Z,15.72
2019-06-08T01:37:54.300Z,15.65
2019-06-08T01:40:27.362Z,15.24
2019-06-08T01:42:58.975Z,15.05
2019-06-08T01:45:32.426Z,15.14
2019-06-08T01:48:19.467Z,15.39
2019-06-08T01:50:39.545Z,15.55
2019-06-08T01:53:11.098Z,15.65
2019-06-08T01:55:44.344Z,15.60
2019-06-08T01:58:15.773Z,15.53
2019-06-08T02:00:47.725Z,15.54
2019-06-08T02:03:19.166Z,15.53
2019-06-08T02:05:50.681Z,15.44
2019-06-08T02:08:22.155Z,15.39
2019-06-08T02:10:53.817Z,15.29
2019-06-08T02:13:26.867Z,15.26
2019-06-08T02:15:58.541Z,15.40
2019-06-08T02:18:41.559Z,15.51
2019-06-08T02:21:03.626Z,15.61
2019-06-08T02:23:35.424Z,15.67
2019-06-08T02:26:07.458Z,15.49
2019-06-08T02:28:40.138Z,15.53
2019-06-08T02:31:12.323Z,15.54
2019-06-08T02:33:43.798Z,15.48
2019-06-08T02:36:15.624Z,15.14
2019-06-08T02:38:47.107Z,14.95
2019-06-08T02:41:18.923Z,14.98
2019-06-08T02:43:50.447Z,15.06
2019-06-08T02:46:21.977Z,15.06
2019-06-08T02:49:03.300Z,15.06
2019-06-08T02:51:28.718Z,15.17
2019-06-08T02:54:02.502Z,15.18
2019-06-08T02:56:36.721Z,15.18
2019-06-08T02:59:10.709Z,14.98
2019-06-08T03:01:43.835Z,14.91
2019-06-08T03:04:18.964Z,15.10
2019-06-08T03:06:53.764Z,15.15
2019-06-08T03:09:28.290Z,15.25
2019-06-08T03:12:03.121Z,15.25
2019-06-08T03:14:35.610Z,15.31
2019-06-08T03:17:08.506Z,15.34
2019-06-08T03:19:41.773Z,15.43
2019-06-08T03:22:13.356Z,15.41
2019-06-08T03:24:44.825Z,15.33
2019-06-08T03:27:16.418Z,15.38
2019-06-08T03:29:48.038Z,15.44
2019-06-08T03:32:19.360Z,15.49
2019-06-08T03:34:55.958Z,15.56
2019-06-08T03:37:24.405Z,15.45
2019-06-08T03:39:56.114Z,15.43
2019-06-08T03:42:28.489Z,15.37
2019-06-08T03:44:59.810Z,15.43
2019-06-08T03:47:31.061Z,15.44
2019-06-08T03:50:02.581Z,15.48
2019-06-08T03:52:35.443Z,15.50
2019-06-08T03:55:07.509Z,15.45
2019-06-08T03:57:40.407Z,15.55
2019-06-08T04:00:13.835Z,15.51
2019-06-08T04:02:46.788Z,15.47
2019-06-08T04:05:18.353Z,15.36
2019-06-08T04:07:50.507Z,15.51
2019-06-08T04:10:22.151Z,15.56
2019-06-08T04:12:53.879Z,15.66
2019-06-08T04:15:25.651Z,15.63
2019-06-08T04:17:57.309Z,15.61
2019-06-08T04:20:28.748Z,15.61
2019-06-08T04:23:00.467Z,15.52
2019-06-08T04:25:33.339Z,15.41
2019-06-08T04:28:05.295Z,15.15
2019-06-08T04:30:38.510Z,15.17
2019-06-08T04:33:10.050Z,15.13
2019-06-08T04:35:42.785Z,15.22
2019-06-08T04:38:14.569Z,15.39
2019-06-08T04:40:48.141Z,15.30
2019-06-08T04:43:19.323Z,15.34
2019-06-08T04:45:51.089Z,15.27
2019-06-08T04:48:22.587Z,15.38
2019-06-08T04:50:54.330Z,15.23
2019-06-08T04:53:25.814Z,15.26
2019-06-08T04:55:57.250Z,15.17
2019-06-08T04:58:28.767Z,15.21
2019-06-08T05:01:00.463Z,15.28
2019-06-08T05:03:31.902Z,15.23
2019-06-08T05:06:03.371Z,15.17
2019-06-08T05:08:34.763Z,15.27
2019-06-08T05:11:06.259Z,15.33
2019-06-08T05:13:39.125Z,15.42
2019-06-08T05:16:10.637Z,15.31
2019-06-08T05:18:43.138Z,15.13
2019-06-08T05:21:14.559Z,15.39
2019-06-08T05:23:48.264Z,15.37
2019-06-08T05:26:19.376Z,15.43
2019-06-08T05:28:50.896Z,15.33
2019-06-08T05:31:22.269Z,15.20
2019-06-08T05:33:53.615Z,15.18
2019-06-08T05:36:25.518Z,15.06
2019-06-08T05:38:56.835Z,15.09
2019-06-08T05:41:28.360Z,15.15
2019-06-08T05:43:59.697Z,15.38
2019-06-08T05:46:31.112Z,15.24
2019-06-08T05:49:02.898Z,15.19
2019-06-08T05:51:34.509Z,15.44
2019-06-08T05:54:06.138Z,15.43
2019-06-08T05:56:37.570Z,15.36
2019-06-08T05:59:09.334Z,15.38
2019-06-08T06:01:42.388Z,15.50
2019-06-08T06:04:14.912Z,15.58
2019-06-08T06:06:46.649Z,15.55
2019-06-08T06:09:18.126Z,15.56
2019-06-08T06:11:50.993Z,15.61
2019-06-08T06:14:22.789Z,15.32
2019-06-08T06:16:54.171Z,15.19
2019-06-08T06:19:25.586Z,15.37
2019-06-08T06:21:57.274Z,15.44
2019-06-08T06:24:29.181Z,15.54
2019-06-08T06:27:00.779Z,15.35
2019-06-08T06:29:32.202Z,15.29
2019-06-08T06:32:03.799Z,15.49
2019-06-08T06:34:35.266Z,15.63
2019-06-08T06:37:06.774Z,15.38
2019-06-08T06:39:38.275Z,15.35
2019-06-08T06:42:09.822Z,15.33
2019-06-08T06:44:42.134Z,15.59
2019-06-08T06:47:13.845Z,15.63
2019-06-08T06:49:46.413Z,15.41
2019-06-08T06:52:17.986Z,15.36
2019-06-08T06:54:49.378Z,15.42
2019-06-08T06:57:20.698Z,15.62
2019-06-08T06:59:52.104Z,15.75
2019-06-08T07:02:24.813Z,15.82
2019-06-08T07:04:56.249Z,15.60
2019-06-08T07:07:27.604Z,15.74
2019-06-08T07:09:59.181Z,15.61
2019-06-08T07:12:30.568Z,15.69
2019-06-08T07:15:03.009Z,15.57
2019-06-08T07:17:34.566Z,15.47
2019-06-08T07:20:07.241Z,15.51
2019-06-08T07:22:38.797Z,15.76
2019-06-08T07:25:10.288Z,15.83
2019-06-08T07:27:41.636Z,15.88
2019-06-08T07:30:13.680Z,15.64
2019-06-08T07:32:46.536Z,15.78
2019-06-08T07:35:18.706Z,15.96
2019-06-08T07:37:51.878Z,15.81
2019-06-08T07:40:23.524Z,15.78
2019-06-08T07:42:56.556Z,16.07
2019-06-08T07:45:29.594Z,16.35
2019-06-08T07:48:01.010Z,15.99
2019-06-08T07:50:32.509Z,15.99
2019-06-08T07:53:04.496Z,15.94
2019-06-08T07:55:35.971Z,15.96
2019-06-08T07:58:07.684Z,16.14
2019-06-08T08:00:40.374Z,16.09
2019-06-08T08:03:11.858Z,16.09
2019-06-08T08:05:43.380Z,15.91
2019-06-08T08:08:16.237Z,16.07
2019-06-08T08:10:48.343Z,16.03
2019-06-08T08:13:19.689Z,16.48
2019-06-08T08:15:51.123Z,16.36
2019-06-08T08:18:22.442Z,16.52
2019-06-08T08:20:55.831Z,16.46
2019-06-08T08:23:27.545Z,16.51
2019-06-08T08:26:01.870Z,16.54
2019-06-08T08:28:33.758Z,16.63
2019-06-08T08:31:07.742Z,16.25
2019-06-08T08:33:38.789Z,16.34
2019-06-08T08:36:11.048Z,16.39
2019-06-08T08:38:43.565Z,17.00
2019-06-08T08:41:17.948Z,17.10
2019-06-08T08:43:50.151Z,17.55
2019-06-08T08:46:21.864Z,17.73
2019-06-08T08:48:54.269Z,17.48
2019-06-08T08:51:27.926Z,17.47
2019-06-08T08:54:03.952Z,17.68
2019-06-08T08:56:31.993Z,17.95
2019-06-08T08:59:04.288Z,17.65
2019-06-08T09:01:38.197Z,17.73
2019-06-08T09:04:10.499Z,17.94
2019-06-08T09:06:42.755Z,18.24
2019-06-08T09:09:14.490Z,18.31
2019-06-08T09:11:48.397Z,17.76
2019-06-08T09:14:19.210Z,17.60
2019-06-08T09:16:51.893Z,17.85
2019-06-08T09:19:23.901Z,17.91
2019-06-08T09:21:56.710Z,18.10
2019-06-08T09:24:28.653Z,18.09
2019-06-08T09:27:03.701Z,18.19
2019-06-08T09:29:33.532Z,17.96
2019-06-08T09:32:05.320Z,18.04
2019-06-08T09:34:38.660Z,18.35
2019-06-08T09:37:10.992Z,18.24
2019-06-08T09:39:42.413Z,18.73
2019-06-08T09:42:14.935Z,18.93
2019-06-08T09:44:48.309Z,18.67
2019-06-08T09:47:20.712Z,18.50
2019-06-08T09:49:53.767Z,18.51
2019-06-08T09:52:28.137Z,19.39
2019-06-08T09:55:03.731Z,19.88
2019-06-08T09:57:34.580Z,20.06
2019-06-08T10:00:15.295Z,20.63
2019-06-08T10:02:40.200Z,20.23
2019-06-08T10:05:12.379Z,19.39
2019-06-08T10:07:43.850Z,19.29
2019-06-08T10:10:18.001Z,19.69
2019-06-08T10:12:49.112Z,19.40
2019-06-08T10:15:21.060Z,20.37
2019-06-08T10:17:52.537Z,19.93
2019-06-08T10:20:24.178Z,20.01
2019-06-08T10:22:58.918Z,19.60
2019-06-08T10:25:30.663Z,19.38
2019-06-08T10:28:10.148Z,18.80
2019-06-08T10:30:35.498Z,18.32
2019-06-08T10:33:09.879Z,18.52
2019-06-08T10:35:40.335Z,19.32
2019-06-08T10:38:12.202Z,20.21
2019-06-08T10:41:16.257Z,20.07
2019-06-08T10:43:41.888Z,19.85
2019-06-08T10:46:17.141Z,20.53
2019-06-08T10:48:48.673Z,19.84
2019-06-08T10:51:19.846Z,19.91
2019-06-08T10:53:53.260Z,20.00
2019-06-08T10:56:24.963Z,19.23
2019-06-08T10:58:58.042Z,19.02
2019-06-08T11:01:29.583Z,19.41
2019-06-08T11:04:01.978Z,21.01
2019-06-08T11:06:34.586Z,21.27
2019-06-08T11:09:12.671Z,21.56
2019-06-08T11:11:41.132Z,19.82
2019-06-08T11:14:13.526Z,20.09
2019-06-08T11:16:47.590Z,20.66
2019-06-08T11:19:19.468Z,21.46
2019-06-08T11:21:51.485Z,22.41
2019-06-08T11:24:25.125Z,21.93
2019-06-08T11:26:57.777Z,21.32
2019-06-08T11:29:30.690Z,20.96
2019-06-08T11:32:03.974Z,20.51
2019-06-08T11:34:37.714Z,22.45
2019-06-08T11:37:12.926Z,22.97
2019-06-08T11:39:42.876Z,22.96
2019-06-08T11:42:14.273Z,22.81
2019-06-08T11:44:47.952Z,22.55
2019-06-08T11:47:19.029Z,22.68
2019-06-08T11:49:50.365Z,22.68
2019-06-08T11:52:21.854Z,23.97
2019-06-08T11:54:53.322Z,22.30
2019-06-08T11:57:25.230Z,21.96
2019-06-08T11:59:59.702Z,23.10
2019-06-08T12:02:31.276Z,23.34
2019-06-08T12:05:03.710Z,23.33
2019-06-08T12:07:38.066Z,22.54
2019-06-08T12:10:10.896Z,23.01
2019-06-08T12:12:42.095Z,23.77
2019-06-08T12:15:14.999Z,23.67
2019-06-08T12:17:49.955Z,23.28
2019-06-08T12:20:21.445Z,22.90
2019-06-08T12:22:53.020Z,24.06
2019-06-08T12:25:24.518Z,24.04
2019-06-08T12:27:58.418Z,23.38
2019-06-08T12:30:29.764Z,23.35
2019-06-08T12:33:01.284Z,23.64
2019-06-08T12:35:32.725Z,23.86
2019-06-08T12:38:05.579Z,24.25
2019-06-08T12:40:37.841Z,25.25
2019-06-08T12:43:12.871Z,23.75
2019-06-08T12:45:43.884Z,24.33
2019-06-08T12:48:19.499Z,24.53
2019-06-08T12:50:49.037Z,23.07
2019-06-08T12:53:22.904Z,24.41
2019-06-08T12:55:53.912Z,24.47
2019-06-08T12:58:27.478Z,24.39
2019-06-08T13:00:58.643Z,24.40
2019-06-08T13:03:30.326Z,24.87
2019-06-08T13:06:01.816Z,24.74
2019-06-08T13:08:33.395Z,24.20
2019-06-08T13:11:07.744Z,24.36
2019-06-08T13:13:38.268Z,25.29
2019-06-08T13:16:12.452Z,25.39
2019-06-08T13:18:44.055Z,24.70
2019-06-08T13:21:30.641Z,24.38
2019-06-08T13:23:48.718Z,24.73
2019-06-08T13:26:27.485Z,24.98
2019-06-08T13:28:53.519Z,25.21
2019-06-08T13:31:25.545Z,25.26
2019-06-08T13:33:58.614Z,26.18
2019-06-08T13:36:30.129Z,25.47
2019-06-08T13:39:02.666Z,25.20
2019-06-08T13:41:38.279Z,24.54
2019-06-08T13:44:08.934Z,25.05
2019-06-08T13:46:40.921Z,25.10
2019-06-08T13:49:14.123Z,25.49
2019-06-08T13:51:45.520Z,25.64
2019-06-08T13:54:19.569Z,24.70
2019-06-08T13:56:50.692Z,24.89
2019-06-08T13:59:27.285Z,25.01
2019-06-08T14:01:57.872Z,24.15
2019-06-08T14:04:29.596Z,24.63
2019-06-08T14:07:01.311Z,24.93
2019-06-08T14:09:32.898Z,25.70
2019-06-08T14:12:04.431Z,25.26
2019-06-08T14:14:39.656Z,24.63
2019-06-08T14:17:08.977Z,24.61
2019-06-08T14:19:40.377Z,25.19
2019-06-08T14:22:11.937Z,25.49
2019-06-08T14:24:43.291Z,25.74
2019-06-08T14:27:15.282Z,25.65
2019-06-08T14:29:48.494Z,25.97
2019-06-08T14:32:22.371Z,25.99
2019-06-08T14:34:53.949Z,25.31
2019-06-08T14:37:27.923Z,25.56
2019-06-08T14:39:58.816Z,25.06
2019-06-08T14:42:31.744Z,24.52
2019-06-08T14:45:03.939Z,24.55
2019-06-08T14:47:37.666Z,24.19
2019-06-08T14:50:11.178Z,24.45
2019-06-08T14:52:42.924Z,24.92
2019-06-08T14:55:15.321Z,25.34
2019-06-08T14:57:48.189Z,25.28
2019-06-08T15:00:24.499Z,24.18
2019-06-08T15:02:58.932Z,24.30
2019-06-08T15:05:32.187Z,24.95
2019-06-08T15:08:03.506Z,24.93
2019-06-08T15:10:34.924Z,25.00
2019-06-08T15:13:07.731Z,25.50
2019-06-08T15:15:39.424Z,25.95
2019-06-08T15:18:11.186Z,26.26
2019-06-08T15:20:42.802Z,25.73
2019-06-08T15:23:16.985Z,25.93
2019-06-08T15:25:47.796Z,26.38
2019-06-08T15:28:20.454Z,26.41
2019-06-08T15:30:52.081Z,26.20
2019-06-08T15:33:24.863Z,25.71
2019-06-08T15:35:57.549Z,25.72
2019-06-08T15:38:30.576Z,25.10
2019-06-08T15:41:02.431Z,24.51
2019-06-08T15:43:37.067Z,24.39
2019-06-08T15:46:08.499Z,24.66
2019-06-08T15:48:40.307Z,25.09
2019-06-08T15:51:11.793Z,25.02
2019-06-08T15:53:43.871Z,25.25
2019-06-08T15:56:15.232Z,25.68
2019-06-08T15:58:48.714Z,25.15
2019-06-08T16:01:20.303Z,24.00
2019-06-08T16:03:51.661Z,23.65
2019-06-08T16:06:23.645Z,24.34
2019-06-08T16:08:55.218Z,24.13
2019-06-08T16:11:26.666Z,24.31
2019-06-08T16:13:58.404Z,23.90
2019-06-08T16:16:31.157Z,23.87
2019-06-08T16:19:02.608Z,24.19
2019-06-08T16:21:35.987Z,24.47
2019-06-08T16:24:08.401Z,24.34
2019-06-08T16:26:52.628Z,24.22
2019-06-08T16:29:14.942Z,24.15
2019-06-08T16:31:46.740Z,23.64
2019-06-08T16:34:18.336Z,23.94
2019-06-08T16:36:49.872Z,24.04
2019-06-08T16:39:21.267Z,23.76
2019-06-08T16:41:53.138Z,23.74
2019-06-08T16:44:24.763Z,23.57
2019-06-08T16:46:56.395Z,23.05
2019-06-08T16:49:29.057Z,23.25
2019-06-08T16:52:00.694Z,23.16
2019-06-08T16:54:32.806Z,22.93
2019-06-08T16:57:10.228Z,22.68
2019-06-08T16:59:38.581Z,22.52
2019-06-08T17:02:11.091Z,22.10
2019-06-08T17:04:42.605Z,22.13
2019-06-08T17:07:14.303Z,22.30
2019-06-08T17:09:45.974Z,22.44
2019-06-08T17:12:17.310Z,22.23
2019-06-08T17:14:48.660Z,22.25
2019-06-08T17:17:19.984Z,21.85
2019-06-08T17:19:51.495Z,22.03
2019-06-08T17:22:23.027Z,22.30
2019-06-08T17:24:54.450Z,22.62
2019-06-08T17:27:27.222Z,22.81
2019-06-08T17:29:58.863Z,22.57
2019-06-08T17:32:38.439Z,22.42
2019-06-08T17:35:13.908Z,21.90
2019-06-08T17:37:45.480Z,21.76
2019-06-08T17:40:38.135Z,21.79
2019-06-08T17:43:24.679Z,21.73
2019-06-08T17:46:23.670Z,21.42
2019-06-08T17:49:16.199Z,21.35
2019-06-08T17:51:53.359Z,21.45
2019-06-08T17:54:28.048Z,21.08
2019-06-08T17:57:09.883Z,20.88
2019-06-08T17:59:41.740Z,20.86
2019-06-08T18:02:18.211Z,20.90
2019-06-08T18:04:48.557Z,20.84
2019-06-08T18:07:20.219Z,20.78
2019-06-08T18:09:51.796Z,20.71
2019-06-08T18:12:23.287Z,20.56
2019-06-08T18:14:57.915Z,20.40
2019-06-08T18:17:29.214Z,20.15
2019-06-08T18:20:03.121Z,20.02
2019-06-08T18:22:34.938Z,19.84
2019-06-08T18:25:07.870Z,19.88
2019-06-08T18:27:42.362Z,19.72
2019-06-08T18:30:15.048Z,19.54
2019-06-08T18:32:48.531Z,19.23
2019-06-08T18:35:21.443Z,19.05
2019-06-08T18:37:54.361Z,18.79
2019-06-08T18:40:27.602Z,18.55
2019-06-08T18:42:59.988Z,18.25
2019-06-08T18:45:32.207Z,18.08
2019-06-08T18:48:03.545Z,17.88
2019-06-08T18:50:35.817Z,17.68
2019-06-08T18:53:08.309Z,17.45
2019-06-08T18:55:41.565Z,17.24
2019-06-08T18:58:20.590Z,16.93
2019-06-08T19:00:49.569Z,16.61
2019-06-08T19:03:19.219Z,16.54
2019-06-08T19:05:52.149Z,16.51
2019-06-08T19:08:25.129Z,16.48
2019-06-08T19:10:57.307Z,16.35
2019-06-08T19:13:28.817Z,16.20
2019-06-08T19:16:00.253Z,16.02
2019-06-08T19:18:31.663Z,16.04
2019-06-08T19:21:03.036Z,16.00
2019-06-08T19:23:34.306Z,15.87
2019-06-08T19:26:07.669Z,15.75
2019-06-08T19:28:47.805Z,15.67
2019-06-08T19:31:17.569Z,15.60
2019-06-08T19:33:53.378Z,15.46
2019-06-08T19:36:22.325Z,15.40
2019-06-08T19:38:54.808Z,15.32
2019-06-08T19:41:28.283Z,15.28
2019-06-08T19:43:59.524Z,15.25
2019-06-08T19:46:30.863Z,15.17
2019-06-08T19:49:02.316Z,15.01
2019-06-08T19:51:33.679Z,15.01
2019-06-08T19:54:07.083Z,14.96
2019-06-08T19:56:40.297Z,14.86
2019-06-08T19:59:11.855Z,14.73
2019-06-08T20:01:43.749Z,14.64
2019-06-08T20:04:15.110Z,14.50
2019-06-08T20:06:47.980Z,14.45
2019-06-08T20:09:20.181Z,14.46
2019-06-08T20:11:55.547Z,14.39
2019-06-08T20:14:25.032Z,14.28
2019-06-08T20:16:57.822Z,14.30
2019-06-08T20:19:29.344Z,14.33
2019-06-08T20:22:00.886Z,14.39
2019-06-08T20:24:32.181Z,14.31
2019-06-08T20:27:07.702Z,14.33
2019-06-08T20:29:41.256Z,14.33
2019-06-08T20:32:12.705Z,14.35
2019-06-08T20:34:45.099Z,14.44
2019-06-08T20:37:20.144Z,14.33
2019-06-08T20:40:04.510Z,14.23
2019-06-08T20:42:24.841Z,14.06
2019-06-08T20:44:57.753Z,13.99
2019-06-08T20:47:29.403Z,13.91
2019-06-08T20:50:01.832Z,13.85
2019-06-08T20:52:37.814Z,13.81
2019-06-08T20:55:10.456Z,13.73
2019-06-08T20:57:43.071Z,13.51
2019-06-08T21:00:14.900Z,13.25
2019-06-08T21:02:48.825Z,13.20
2019-06-08T21:05:19.544Z,13.21
2019-06-08T21:07:53.934Z,13.27
2019-06-08T21:10:25.054Z,13.32
2019-06-08T21:12:58.770Z,13.21
2019-06-08T21:15:29.642Z,13.10
2019-06-08T21:18:01.470Z,13.09
2019-06-08T21:20:32.897Z,13.07
2019-06-08T21:23:04.303Z,13.11
2019-06-08T21:25:37.239Z,13.16
2019-06-08T21:28:08.887Z,13.16
2019-06-08T21:30:40.204Z,13.12
2019-06-08T21:33:11.596Z,13.11
2019-06-08T21:35:43.124Z,13.13
2019-06-08T21:38:23.483Z,12.97
2019-06-08T21:40:54.271Z,12.76
2019-06-08T21:43:27.915Z,12.70
2019-06-08T21:46:03.421Z,12.67
2019-06-08T21:48:38.097Z,12.82
2019-06-08T21:51:10.457Z,12.93
2019-06-08T21:53:42.190Z,12.99
2019-06-08T21:56:13.507Z,13.03
2019-06-08T21:58:47.116Z,12.93
2019-06-08T22:01:19.005Z,12.82
2019-06-08T22:03:51.640Z,12.96
2019-06-08T22:06:23.163Z,12.96
2019-06-08T22:08:54.651Z,13.00
2019-06-08T22:11:26.106Z,12.89
2019-06-08T22:14:00.520Z,12.81
2019-06-08T22:16:30.939Z,12.83
2019-06-08T22:19:03.395Z,12.84
2019-06-08T22:21:37.661Z,12.70
2019-06-08T22:24:08.694Z,12.71
2019-06-08T22:26:40.131Z,12.63
2019-06-08T22:29:11.691Z,12.59
2019-06-08T22:31:43.013Z,12.53
2019-06-08T22:34:14.277Z,12.55
2019-06-08T22:36:47.813Z,12.58
2019-06-08T22:39:19.280Z,12.70
2019-06-08T22:41:51.430Z,12.76
2019-06-08T22:44:22.719Z,12.86
2019-06-08T22:46:55.362Z,12.94
2019-06-08T22:49:27.933Z,12.92
2019-06-08T22:52:01.024Z,12.84
2019-06-08T22:54:32.623Z,12.73
2019-06-08T22:57:04.779Z,12.77
2019-06-08T22:59:37.740Z,12.78
2019-06-08T23:02:09.346Z,12.71
2019-06-08T23:04:40.761Z,12.63
2019-06-08T23:07:25.761Z,12.55
2019-06-08T23:09:47.874Z,12.48
2019-06-08T23:12:19.978Z,12.30
2019-06-08T23:14:52.186Z,12.18
2019-06-08T23:17:24.453Z,12.23
2019-06-08T23:19:57.789Z,12.27
2019-06-08T23:22:29.410Z,12.40
2019-06-08T23:25:02.946Z,12.53
2019-06-08T23:27:37.798Z,12.59
2019-06-08T23:30:10.486Z,12.65
2019-06-08T23:32:42.933Z,12.57
2019-06-08T23:35:15.404Z,12.44
2019-06-08T23:37:47.945Z,12.38
2019-06-08T23:40:20.135Z,12.34
2019-06-08T23:42:54.649Z,12.39
2019-06-08T23:45:27.180Z,12.34
2019-06-08T23:48:01.107Z,12.34
2019-06-08T23:50:34.024Z,12.29
2019-06-08T23:53:09.062Z,12.32
2019-06-08T23:55:40.519Z,12.39
2019-06-08T23:58:12.935Z,12.44
